createdAt,value
2023-02-19T00:01:42.311Z,64.02
2023-02-19T00:04:20.169Z,63.42
2023-02-19T00:06:53.789Z,62.85
2023-02-19T00:09:27.556Z,63.02
2023-02-19T00:12:00.712Z,62.41
2023-02-19T00:14:34.417Z,62.46
2023-02-19T00:17:08.388Z,62.53
2023-02-19T00:19:42.063Z,62.13
2023-02-19T00:22:14.966Z,62.24
2023-02-19T00:24:49.321Z,62.24
2023-02-19T00:27:23.615Z,62.39
2023-02-19T00:29:57.538Z,62.74
2023-02-19T00:32:31.556Z,63.35
2023-02-19T00:35:07.226Z,62.89
2023-02-19T00:37:40.772Z,64.10
2023-02-19T00:40:14.359Z,64.00
2023-02-19T00:42:47.645Z,63.18
2023-02-19T00:45:22.525Z,63.44
2023-02-19T00:47:56.125Z,62.92
2023-02-19T00:50:30.000Z,63.34
2023-02-19T00:53:02.917Z,64.37
2023-02-19T00:55:36.172Z,66.77
2023-02-19T00:58:09.070Z,70.44
2023-02-19T01:00:41.951Z,69.34
2023-02-19T01:03:14.783Z,68.47
2023-02-19T01:05:48.318Z,70.53
2023-02-19T01:08:23.235Z,70.61
2023-02-19T01:10:56.698Z,69.70
2023-02-19T01:13:30.235Z,69.71
2023-02-19T01:16:14.668Z,72.67
2023-02-19T01:18:48.553Z,72.45
2023-02-19T01:21:29.226Z,72.75
2023-02-19T01:24:02.472Z,72.78
2023-02-19T01:26:36.096Z,73.46
2023-02-19T01:29:09.331Z,73.87
2023-02-19T01:31:43.176Z,73.85
2023-02-19T01:34:16.396Z,73.82
2023-02-19T01:36:49.354Z,73.07
2023-02-19T01:39:22.396Z,73.65
2023-02-19T01:41:55.788Z,73.70
2023-02-19T01:44:31.268Z,74.90
2023-02-19T01:47:04.706Z,74.50
2023-02-19T01:49:49.679Z,74.59
2023-02-19T01:52:32.503Z,73.94
2023-02-19T01:55:09.529Z,75.31
2023-02-19T01:57:46.884Z,74.92
2023-02-19T02:00:24.927Z,74.65
2023-02-19T02:03:02.499Z,74.86
2023-02-19T02:06:13.630Z,73.79
2023-02-19T02:09:05.689Z,75.35
2023-02-19T02:11:41.379Z,75.19
2023-02-19T02:14:15.717Z,74.86
2023-02-19T02:17:02.153Z,74.50
2023-02-19T02:19:44.383Z,74.32
2023-02-19T02:22:25.503Z,74.44
2023-02-19T02:25:21.832Z,74.13
2023-02-19T02:28:42.698Z,74.05
2023-02-19T02:31:28.228Z,74.09
2023-02-19T02:34:29.401Z,74.00
2023-02-19T02:37:03.774Z,73.89
2023-02-19T02:39:39.340Z,73.53
2023-02-19T02:42:31.878Z,73.33
2023-02-19T02:45:40.270Z,73.70
2023-02-19T02:48:30.575Z,73.23
2023-02-19T02:51:25.690Z,73.45
2023-02-19T02:54:54.821Z,73.66
2023-02-19T02:57:28.052Z,73.27
2023-02-19T03:00:02.539Z,73.17
2023-02-19T03:02:36.444Z,72.73
2023-02-19T03:05:31.128Z,73.11
2023-02-19T03:08:39.562Z,73.35
2023-02-19T03:11:33.639Z,72.84
2023-02-19T03:14:37.886Z,72.99
2023-02-19T03:17:58.329Z,72.99
2023-02-19T03:20:36.692Z,73.31
2023-02-19T03:23:11.248Z,74.17
2023-02-19T03:26:03.210Z,73.04
2023-02-19T03:29:06.687Z,72.86
2023-02-19T03:31:42.142Z,72.80
2023-02-19T03:34:21.760Z,72.48
2023-02-19T03:37:08.981Z,72.44
2023-02-19T03:39:49.096Z,72.83
2023-02-19T03:42:56.283Z,73.23
2023-02-19T03:45:55.683Z,73.73
2023-02-19T03:48:51.738Z,72.31
2023-02-19T03:51:48.377Z,71.85
2023-02-19T03:54:31.079Z,72.17
2023-02-19T03:57:20.897Z,71.95
2023-02-19T04:00:20.291Z,72.14
2023-02-19T04:03:00.452Z,71.93
2023-02-19T04:05:39.534Z,72.38
2023-02-19T04:08:20.914Z,74.05
2023-02-19T04:11:00.735Z,76.23
2023-02-19T04:13:48.216Z,75.38
2023-02-19T04:16:26.563Z,74.01
2023-02-19T04:19:06.254Z,75.38
2023-02-19T04:21:41.856Z,75.12
2023-02-19T04:24:24.896Z,76.16
2023-02-19T04:26:59.353Z,73.98
2023-02-19T04:29:32.784Z,73.94
2023-02-19T04:32:06.112Z,74.83
2023-02-19T04:34:39.190Z,75.23
2023-02-19T04:37:13.120Z,74.44
2023-02-19T04:39:46.573Z,74.21
2023-02-19T04:42:20.554Z,74.13
2023-02-19T04:44:54.497Z,73.52
2023-02-19T04:47:28.058Z,73.17
2023-02-19T04:50:01.096Z,72.94
2023-02-19T04:52:34.182Z,72.65
2023-02-19T04:55:07.790Z,72.46
2023-02-19T04:57:41.369Z,72.28
2023-02-19T05:00:15.214Z,72.29
2023-02-19T05:02:48.530Z,72.67
2023-02-19T05:05:21.888Z,72.82
2023-02-19T05:07:56.296Z,72.48
2023-02-19T05:10:29.549Z,72.22
2023-02-19T05:13:02.504Z,72.20
2023-02-19T05:15:35.782Z,73.70
2023-02-19T05:18:08.894Z,72.53
2023-02-19T05:20:42.363Z,71.93
2023-02-19T05:23:15.458Z,72.34
2023-02-19T05:25:48.617Z,72.17
2023-02-19T05:28:30.321Z,72.33
2023-02-19T05:31:08.751Z,73.84
2023-02-19T05:33:43.599Z,72.81
2023-02-19T05:36:17.091Z,72.67
2023-02-19T05:38:53.473Z,73.88
2023-02-19T05:41:31.686Z,74.58
2023-02-19T05:44:04.925Z,73.76
2023-02-19T05:46:38.840Z,73.85
2023-02-19T05:49:12.507Z,72.99
2023-02-19T05:51:46.418Z,72.18
2023-02-19T05:54:19.510Z,72.36
2023-02-19T05:56:52.990Z,73.34
2023-02-19T05:59:29.212Z,73.60
2023-02-19T06:02:02.641Z,72.72
2023-02-19T06:04:35.892Z,72.72
2023-02-19T06:07:09.494Z,73.52
2023-02-19T06:09:42.429Z,73.17
2023-02-19T06:12:16.481Z,72.38
2023-02-19T06:14:49.715Z,72.83
2023-02-19T06:17:22.725Z,72.55
2023-02-19T06:19:56.102Z,72.20
2023-02-19T06:22:30.214Z,71.10
2023-02-19T06:25:03.974Z,71.25
2023-02-19T06:27:38.483Z,71.17
2023-02-19T06:30:12.641Z,70.57
2023-02-19T06:32:46.192Z,70.49
2023-02-19T06:35:19.883Z,70.10
2023-02-19T06:37:53.488Z,70.41
2023-02-19T06:40:27.821Z,69.94
2023-02-19T06:43:01.111Z,70.07
2023-02-19T06:45:34.370Z,70.23
2023-02-19T06:48:07.968Z,69.53
2023-02-19T06:50:41.109Z,69.57
2023-02-19T06:53:14.597Z,69.21
2023-02-19T06:55:58.552Z,69.36
2023-02-19T06:58:32.320Z,69.28
2023-02-19T07:01:05.566Z,69.04
2023-02-19T07:03:40.524Z,68.61
2023-02-19T07:06:13.942Z,68.63
2023-02-19T07:08:48.029Z,68.75
2023-02-19T07:11:21.320Z,68.60
2023-02-19T07:14:01.514Z,68.66
2023-02-19T07:16:35.264Z,68.55
2023-02-19T07:19:10.301Z,68.52
2023-02-19T07:21:43.848Z,68.22
2023-02-19T07:24:17.228Z,68.11
2023-02-19T07:26:49.908Z,68.59
2023-02-19T07:29:23.314Z,68.58
2023-02-19T07:31:56.367Z,68.13
2023-02-19T07:34:29.443Z,69.17
2023-02-19T07:37:02.512Z,68.88
2023-02-19T07:39:37.142Z,68.95
2023-02-19T07:42:09.996Z,68.49
2023-02-19T07:44:44.904Z,68.26
2023-02-19T07:47:18.410Z,68.14
2023-02-19T07:49:53.371Z,68.19
2023-02-19T07:52:26.446Z,67.61
2023-02-19T07:55:00.335Z,67.12
2023-02-19T07:57:33.298Z,67.04
2023-02-19T08:00:06.683Z,67.45
2023-02-19T08:03:04.210Z,67.17
2023-02-19T08:05:43.383Z,67.01
2023-02-19T08:08:17.770Z,67.02
2023-02-19T08:11:10.201Z,67.41
2023-02-19T08:13:43.210Z,67.20
2023-02-19T08:16:26.594Z,67.04
2023-02-19T08:19:05.092Z,67.30
2023-02-19T08:21:38.826Z,66.97
2023-02-19T08:24:11.840Z,66.97
2023-02-19T08:26:45.152Z,66.47
2023-02-19T08:29:18.505Z,66.12
2023-02-19T08:31:52.105Z,65.54
2023-02-19T08:34:25.457Z,65.88
2023-02-19T08:36:59.121Z,65.87
2023-02-19T08:39:32.164Z,65.45
2023-02-19T08:42:05.690Z,64.41
2023-02-19T08:44:39.176Z,64.21
2023-02-19T08:47:12.674Z,63.92
2023-02-19T08:49:45.941Z,63.82
2023-02-19T08:52:19.654Z,63.06
2023-02-19T08:54:53.175Z,62.89
2023-02-19T08:57:27.372Z,62.77
2023-02-19T09:00:00.843Z,62.22
2023-02-19T09:02:34.259Z,62.78
2023-02-19T09:05:07.951Z,62.44
2023-02-19T09:07:42.110Z,61.36
2023-02-19T09:10:16.540Z,61.67
2023-02-19T09:12:50.360Z,61.49
2023-02-19T09:15:24.000Z,62.06
2023-02-19T09:17:58.118Z,60.96
2023-02-19T09:20:32.060Z,60.76
2023-02-19T09:23:06.105Z,61.30
2023-02-19T09:25:39.334Z,60.18
2023-02-19T09:28:13.477Z,60.01
2023-02-19T09:30:46.749Z,60.67
2023-02-19T09:33:20.268Z,60.48
2023-02-19T09:35:53.688Z,59.99
2023-02-19T09:38:27.315Z,59.57
2023-02-19T09:41:10.830Z,59.01
2023-02-19T09:43:45.194Z,57.64
2023-02-19T09:46:35.342Z,56.53
2023-02-19T09:49:15.631Z,56.95
2023-02-19T09:51:56.777Z,57.84
2023-02-19T09:54:34.395Z,57.75
2023-02-19T09:57:11.602Z,57.52
2023-02-19T10:00:00.229Z,57.32
2023-02-19T10:02:33.557Z,57.17
2023-02-19T10:05:17.739Z,57.26
2023-02-19T10:07:53.485Z,57.12
2023-02-19T10:10:39.911Z,56.74
2023-02-19T10:13:23.534Z,56.85
2023-02-19T10:16:02.767Z,56.73
2023-02-19T10:18:43.694Z,55.61
2023-02-19T10:21:28.555Z,55.69
2023-02-19T10:24:05.191Z,54.36
2023-02-19T10:26:38.356Z,55.46
2023-02-19T10:29:13.274Z,56.48
2023-02-19T10:31:46.523Z,56.16
2023-02-19T10:34:26.131Z,56.27
2023-02-19T10:36:59.453Z,56.48
2023-02-19T10:39:47.236Z,56.64
2023-02-19T10:42:26.170Z,56.43
2023-02-19T10:45:04.828Z,56.43
2023-02-19T10:47:38.246Z,56.61
2023-02-19T10:50:23.750Z,56.82
2023-02-19T10:53:02.772Z,57.20
2023-02-19T10:55:38.275Z,57.65
2023-02-19T10:58:30.788Z,57.91
2023-02-19T11:01:20.104Z,57.99
2023-02-19T11:03:55.642Z,57.93
2023-02-19T11:06:30.108Z,57.73
2023-02-19T11:09:04.571Z,57.29
2023-02-19T11:11:43.112Z,56.88
2023-02-19T11:14:22.185Z,56.81
2023-02-19T11:17:00.343Z,56.71
2023-02-19T11:19:43.568Z,56.49
2023-02-19T11:22:39.843Z,55.92
2023-02-19T11:25:18.389Z,56.11
2023-02-19T11:28:29.465Z,56.00
2023-02-19T11:31:21.333Z,56.06
2023-02-19T11:34:29.724Z,55.72
2023-02-19T11:37:17.988Z,55.97
2023-02-19T11:39:53.329Z,55.91
2023-02-19T11:42:58.828Z,54.71
2023-02-19T11:45:50.268Z,54.41
2023-02-19T11:48:48.900Z,54.88
2023-02-19T11:51:51.482Z,55.76
2023-02-19T11:54:53.304Z,55.14
2023-02-19T11:57:43.664Z,55.53
2023-02-19T12:00:28.870Z,55.95
2023-02-19T12:03:07.150Z,55.36
2023-02-19T12:05:47.431Z,54.90
2023-02-19T12:08:46.435Z,54.98
2023-02-19T12:11:24.709Z,54.99
2023-02-19T12:14:09.754Z,54.78
2023-02-19T12:16:58.232Z,54.96
2023-02-19T12:19:45.608Z,54.98
2023-02-19T12:22:35.506Z,54.73
2023-02-19T12:25:34.444Z,54.88
2023-02-19T12:28:25.337Z,55.15
2023-02-19T12:31:35.527Z,55.24
2023-02-19T12:34:35.650Z,55.19
2023-02-19T12:37:39.309Z,54.92
2023-02-19T12:40:14.786Z,53.56
2023-02-19T12:43:05.221Z,54.22
2023-02-19T12:45:50.020Z,52.96
2023-02-19T12:48:45.288Z,53.59
2023-02-19T12:51:38.278Z,53.80
2023-02-19T12:54:19.153Z,53.30
2023-02-19T12:57:03.033Z,53.60
2023-02-19T12:59:40.072Z,53.47
2023-02-19T13:02:41.401Z,52.75
2023-02-19T13:05:16.850Z,52.29
2023-02-19T13:08:13.095Z,51.86
2023-02-19T13:11:13.125Z,51.29
2023-02-19T13:14:00.389Z,50.71
2023-02-19T13:16:35.539Z,50.83
2023-02-19T13:19:09.586Z,51.72
2023-02-19T13:22:02.637Z,50.28
2023-02-19T13:24:41.902Z,50.52
2023-02-19T13:30:44.313Z,50.61
2023-02-19T13:33:35.503Z,48.99
2023-02-19T13:36:25.552Z,48.46
2023-02-19T13:39:01.369Z,48.48
2023-02-19T13:41:53.220Z,48.01
2023-02-19T13:44:31.888Z,48.12
2023-02-19T13:47:06.885Z,49.36
2023-02-19T13:49:52.986Z,48.11
2023-02-19T13:52:34.813Z,48.10
2023-02-19T13:55:53.034Z,48.77
2023-02-19T13:58:55.699Z,48.77
2023-02-19T14:01:45.268Z,49.68
2023-02-19T14:04:43.710Z,49.67
2023-02-19T14:07:16.509Z,48.88
2023-02-19T14:09:50.075Z,47.44
2023-02-19T14:12:25.639Z,48.68
2023-02-19T14:14:59.536Z,48.58
2023-02-19T14:17:48.484Z,48.69
2023-02-19T14:20:39.412Z,49.33
2023-02-19T14:23:27.556Z,49.50
2023-02-19T14:26:05.204Z,48.57
2023-02-19T14:28:45.692Z,48.81
2023-02-19T14:31:33.829Z,48.76
2023-02-19T14:34:27.594Z,49.67
2023-02-19T14:37:07.381Z,49.07
2023-02-19T14:39:41.924Z,48.75
2023-02-19T14:42:28.334Z,48.49
2023-02-19T14:45:05.270Z,49.04
2023-02-19T14:47:40.060Z,49.23
2023-02-19T14:50:44.949Z,49.63
2023-02-19T14:53:21.322Z,49.65
2023-02-19T14:55:57.708Z,49.57
2023-02-19T14:58:37.918Z,49.15
2023-02-19T15:01:29.661Z,49.53
2023-02-19T15:04:03.358Z,49.96
2023-02-19T15:06:40.383Z,50.56
2023-02-19T15:09:16.564Z,50.63
2023-02-19T15:11:50.548Z,51.12
2023-02-19T15:14:29.375Z,51.23
2023-02-19T15:17:07.518Z,51.48
2023-02-19T15:19:45.367Z,51.59
2023-02-19T15:22:22.876Z,51.76
2023-02-19T15:24:56.995Z,51.84
2023-02-19T15:27:31.185Z,52.14
2023-02-19T15:30:04.991Z,51.95
2023-02-19T15:32:38.815Z,52.00
2023-02-19T15:35:24.605Z,51.97
2023-02-19T15:37:59.055Z,52.33
2023-02-19T15:40:34.374Z,52.57
2023-02-19T15:43:08.126Z,52.62
2023-02-19T15:45:47.351Z,52.94
2023-02-19T15:48:27.717Z,53.05
2023-02-19T15:51:12.043Z,53.05
2023-02-19T15:53:51.396Z,53.40
2023-02-19T15:56:36.152Z,53.54
2023-02-19T15:59:16.349Z,53.84
2023-02-19T16:01:50.771Z,54.14
2023-02-19T16:04:24.552Z,54.39
2023-02-19T16:07:03.271Z,54.58
2023-02-19T16:09:41.145Z,54.93
2023-02-19T16:12:26.422Z,54.95
2023-02-19T16:15:00.372Z,55.43
2023-02-19T16:17:33.911Z,55.70
2023-02-19T16:20:09.564Z,55.91
2023-02-19T16:22:45.044Z,56.25
2023-02-19T16:25:46.126Z,56.32
2023-02-19T16:28:30.247Z,56.50
2023-02-19T16:31:12.077Z,56.74
2023-02-19T16:33:49.175Z,57.02
2023-02-19T16:36:32.409Z,57.44
2023-02-19T16:39:13.000Z,57.65
2023-02-19T16:41:52.629Z,59.34
2023-02-19T16:44:36.534Z,59.47
2023-02-19T16:47:27.082Z,58.73
2023-02-19T16:50:02.215Z,58.80
2023-02-19T16:52:39.747Z,59.00
2023-02-19T16:55:16.918Z,59.05
2023-02-19T16:57:50.879Z,58.86
2023-02-19T17:00:33.186Z,59.15
2023-02-19T17:03:29.489Z,59.06
2023-02-19T17:06:03.028Z,59.24
2023-02-19T17:08:41.038Z,59.45
2023-02-19T17:11:19.498Z,59.33
2023-02-19T17:13:52.800Z,59.33
2023-02-19T17:16:32.482Z,59.22
2023-02-19T17:19:11.600Z,59.60
2023-02-19T17:21:45.711Z,59.72
2023-02-19T17:24:18.950Z,59.59
2023-02-19T17:26:55.451Z,59.73
2023-02-19T17:29:33.654Z,59.74
2023-02-19T17:32:07.679Z,60.14
2023-02-19T17:34:42.521Z,60.07
2023-02-19T17:37:15.944Z,60.07
2023-02-19T17:39:52.964Z,60.17
2023-02-19T17:42:27.102Z,60.11
2023-02-19T17:45:00.955Z,59.99
2023-02-19T17:47:34.765Z,60.05
2023-02-19T17:50:08.329Z,60.03
2023-02-19T17:52:41.617Z,59.99
2023-02-19T17:55:20.052Z,60.04
2023-02-19T17:57:54.523Z,60.10
2023-02-19T18:00:33.076Z,60.01
2023-02-19T18:03:08.545Z,60.04
2023-02-19T18:05:42.374Z,60.26
2023-02-19T18:08:16.650Z,60.12
2023-02-19T18:10:49.878Z,60.17
2023-02-19T18:13:23.672Z,60.08
2023-02-19T18:15:57.178Z,60.09
2023-02-19T18:18:30.979Z,60.32
2023-02-19T18:21:04.409Z,60.39
2023-02-19T18:23:38.791Z,60.56
2023-02-19T18:26:20.581Z,60.97
2023-02-19T18:28:55.186Z,61.11
2023-02-19T18:31:29.027Z,61.22
2023-02-19T18:34:02.322Z,61.13
2023-02-19T18:36:36.330Z,61.33
2023-02-19T18:39:10.520Z,61.34
2023-02-19T18:41:48.649Z,61.45
2023-02-19T18:44:23.774Z,61.46
2023-02-19T18:46:57.398Z,61.49
2023-02-19T18:49:32.950Z,61.68
2023-02-19T18:52:06.315Z,61.82
2023-02-19T18:54:39.531Z,61.67
2023-02-19T18:57:12.722Z,61.62
2023-02-19T18:59:46.733Z,61.48
2023-02-19T19:02:20.605Z,61.67
2023-02-19T19:04:57.120Z,61.60
2023-02-19T19:07:31.230Z,62.71
2023-02-19T19:10:05.593Z,62.68
2023-02-19T19:12:39.136Z,62.40
2023-02-19T19:15:12.956Z,62.17
2023-02-19T19:17:56.382Z,62.26
2023-02-19T19:20:30.194Z,62.24
2023-02-19T19:23:05.436Z,62.32
2023-02-19T19:25:39.444Z,62.19
2023-02-19T19:28:13.445Z,62.59
2023-02-19T19:30:47.142Z,63.18
2023-02-19T19:33:20.623Z,63.10
2023-02-19T19:35:53.964Z,62.93
2023-02-19T19:38:27.222Z,64.51
2023-02-19T19:41:00.864Z,63.33
2023-02-19T19:43:34.679Z,63.84
2023-02-19T19:46:09.563Z,67.34
2023-02-19T19:48:45.204Z,82.54
2023-02-19T19:51:18.854Z,87.97
2023-02-19T19:53:52.815Z,88.23
2023-02-19T19:56:25.810Z,88.32
2023-02-19T19:58:58.260Z,89.22
2023-02-19T20:01:31.378Z,88.41
2023-02-19T20:04:04.835Z,87.98
2023-02-19T20:06:38.059Z,89.22
2023-02-19T20:09:11.827Z,88.65
2023-02-19T20:11:49.134Z,96.62
2023-02-19T20:14:23.075Z,97.86
2023-02-19T20:16:57.174Z,91.13
2023-02-19T20:19:30.230Z,88.84
2023-02-19T20:22:03.371Z,90.25
2023-02-19T20:24:36.684Z,89.87
2023-02-19T20:27:10.629Z,89.92
2023-02-19T20:29:48.033Z,90.56
2023-02-19T20:32:21.754Z,89.19
2023-02-19T20:34:54.615Z,89.91
2023-02-19T20:37:27.506Z,88.72
2023-02-19T20:40:00.263Z,88.40
2023-02-19T20:42:33.417Z,88.22
2023-02-19T20:45:06.956Z,88.19
2023-02-19T20:47:41.929Z,86.92
2023-02-19T20:50:19.483Z,86.47
2023-02-19T20:52:53.762Z,90.06
2023-02-19T20:55:26.684Z,89.22
2023-02-19T20:57:59.909Z,89.26
2023-02-19T21:00:33.235Z,91.63
2023-02-19T21:03:09.571Z,93.34
2023-02-19T21:05:45.444Z,92.86
2023-02-19T21:08:19.437Z,92.94
2023-02-19T21:10:52.572Z,92.88
2023-02-19T21:13:26.082Z,91.99
2023-02-19T21:15:59.226Z,92.00
2023-02-19T21:18:32.566Z,92.22
2023-02-19T21:21:05.773Z,91.50
2023-02-19T21:23:39.695Z,91.16
2023-02-19T21:26:12.930Z,91.78
2023-02-19T21:28:46.841Z,91.29
2023-02-19T21:31:19.963Z,90.47
2023-02-19T21:33:53.272Z,89.43
2023-02-19T21:36:26.286Z,88.94
2023-02-19T21:38:59.467Z,88.96
2023-02-19T21:41:32.354Z,89.22
2023-02-19T21:44:05.538Z,88.63
2023-02-19T21:46:38.582Z,88.62
2023-02-19T21:49:12.410Z,89.05
2023-02-19T21:51:48.406Z,87.62
2023-02-19T21:54:26.341Z,87.96
2023-02-19T21:56:59.358Z,87.89
2023-02-19T21:59:32.255Z,88.27
2023-02-19T22:02:05.274Z,88.03
2023-02-19T22:04:38.496Z,87.90
2023-02-19T22:07:12.313Z,87.66
2023-02-19T22:09:45.576Z,87.22
2023-02-19T22:12:18.773Z,87.01
2023-02-19T22:14:53.267Z,87.05
2023-02-19T22:17:26.597Z,87.41
2023-02-19T22:19:59.517Z,86.90
2023-02-19T22:22:32.968Z,87.09
2023-02-19T22:25:06.981Z,86.99
2023-02-19T22:27:40.129Z,86.84
2023-02-19T22:30:14.388Z,86.64
2023-02-19T22:32:49.476Z,86.86
2023-02-19T22:35:22.605Z,86.78
2023-02-19T22:37:56.147Z,86.22
2023-02-19T22:40:29.850Z,86.37
2023-02-19T22:43:02.736Z,85.67
2023-02-19T22:45:36.125Z,86.13
2023-02-19T22:48:10.516Z,86.93
2023-02-19T22:50:45.434Z,85.76
2023-02-19T22:53:18.395Z,85.43
2023-02-19T22:55:51.414Z,85.30
2023-02-19T22:58:24.796Z,85.50
2023-02-19T23:00:58.452Z,85.55
2023-02-19T23:03:31.529Z,84.28
2023-02-19T23:06:07.758Z,82.74
2023-02-19T23:08:40.952Z,82.20
2023-02-19T23:11:15.520Z,83.33
2023-02-19T23:13:48.670Z,83.50
2023-02-19T23:16:22.224Z,83.35
2023-02-19T23:18:55.300Z,83.19
2023-02-19T23:21:30.372Z,82.96
2023-02-19T23:24:03.740Z,83.09
2023-02-19T23:26:36.933Z,83.68
2023-02-19T23:29:10.125Z,83.56
2023-02-19T23:31:43.321Z,82.68
2023-02-19T23:34:16.633Z,81.86
2023-02-19T23:36:53.042Z,81.08
2023-02-19T23:39:26.130Z,80.59
2023-02-19T23:42:00.115Z,80.44
2023-02-19T23:44:33.464Z,80.37
2023-02-19T23:47:06.196Z,80.71
2023-02-19T23:49:38.827Z,79.10
2023-02-19T23:52:12.290Z,78.79
2023-02-19T23:54:45.160Z,77.23
2023-02-19T23:57:18.229Z,76.52
2023-02-19T23:59:51.314Z,75.70
